Time;durP1;ratioP1;P1;durP2;ratioP2;P2;SDS_P1;SDS_P2;PMS_P1;PMS_P2;Temp;Humidity;BMP_temperature;BMP_pressure;BME280_temperature;BME280_humidity;BME280_pressure;Samples;Min_cycle;Max_cycle;Signal;HPM_P1;HPM_P2
2022/10/07 00:02:13;;;;;;;24.98;14.20;;;;;;;7.61;96.31;102662.50;4996435;28;20161;-59
2022/10/07 00:04:44;;;;;;;25.10;14.25;;;;;;;7.60;96.65;102662.78;5004792;28;20113;-60
2022/10/07 00:07:09;;;;;;;28.33;14.85;;;;;;;7.57;96.83;102664.06;4993709;28;20030;-60
2022/10/07 00:09:34;;;;;;;24.05;14.30;;;;;;;7.56;96.47;102664.31;5001358;28;20022;-59
2022/10/07 00:11:59;;;;;;;22.13;13.05;;;;;;;7.52;96.41;102660.34;4994201;28;20371;-61
2022/10/07 00:14:25;;;;;;;25.45;14.10;;;;;;;7.49;96.51;102659.78;4995195;28;20113;-60
2022/10/07 00:16:50;;;;;;;27.55;14.38;;;;;;;7.48;96.92;102660.00;5012032;28;20466;-60
2022/10/07 00:19:15;;;;;;;27.67;13.68;;;;;;;7.44;97.15;102656.91;5008726;28;20418;-60
2022/10/07 00:21:41;;;;;;;23.60;13.68;;;;;;;7.43;97.39;102649.72;4993828;28;20364;-59
2022/10/07 00:24:07;;;;;;;23.67;13.63;;;;;;;7.40;97.73;102650.22;4996961;28;20026;-61
2022/10/07 00:26:35;;;;;;;25.42;13.80;;;;;;;7.40;98.29;102652.97;5005487;28;20321;-61
2022/10/07 00:29:01;;;;;;;23.92;13.70;;;;;;;7.38;98.67;102651.50;4994575;28;20080;-62
2022/10/07 00:31:33;;;;;;;24.05;13.73;;;;;;;7.31;98.67;102643.38;5003801;28;20108;-60
2022/10/07 00:33:58;;;;;;;22.25;13.68;;;;;;;7.33;98.75;102649.47;5012266;28;20069;-60
2022/10/07 00:36:26;;;;;;;23.75;14.02;;;;;;;7.31;99.14;102646.97;5001568;28;20064;-61
2022/10/07 00:38:57;;;;;;;21.38;13.48;;;;;;;7.29;99.06;102640.84;5012832;28;20033;-59
2022/10/07 00:41:26;;;;;;;22.80;13.60;;;;;;;7.17;99.15;102626.28;5002157;28;20347;-60
2022/10/07 00:43:52;;;;;;;24.45;14.25;;;;;;;7.22;99.05;102634.63;5010792;28;20032;-61
2022/10/07 00:46:29;;;;;;;28.17;14.35;;;;;;;7.20;99.33;102628.53;5006156;28;20094;-60
2022/10/07 00:49:03;;;;;;;24.65;13.85;;;;;;;7.18;99.53;102627.94;5008816;28;20469;-60
2022/10/07 00:51:30;;;;;;;;;;;;;;;7.19;97.96;102621.34;5007581;28;20473;-60
2022/10/07 00:53:55;;;;;;;23.98;13.75;;;;;;;7.16;99.11;102628.16;5004935;28;19909;-59
2022/10/07 00:56:24;;;;;;;26.13;13.50;;;;;;;7.05;99.92;102606.97;5012076;28;20022;-61
2022/10/07 00:58:50;;;;;;;24.92;14.00;;;;;;;7.11;99.93;102622.56;5001949;28;20034;-60
2022/10/07 01:01:17;;;;;;;25.15;13.95;;;;;;;7.08;100.00;102612.03;4999883;28;20124;-60
2022/10/07 01:03:46;;;;;;;23.70;13.82;;;;;;;7.07;100.00;102602.09;5007987;28;20446;-60
2022/10/07 01:06:12;;;;;;;23.90;13.50;;;;;;;7.08;100.00;102609.25;4992900;28;20080;-60
2022/10/07 01:08:37;;;;;;;23.27;13.30;;;;;;;7.08;100.00;102605.69;5002397;28;20034;-61
2022/10/07 01:11:15;;;;;;;24.20;13.07;;;;;;;7.06;100.00;102603.16;5012409;28;20029;-61
2022/10/07 01:13:55;;;;;;;23.92;13.18;;;;;;;7.04;100.00;102602.56;5005676;28;20042;-60
2022/10/07 01:16:21;;;;;;;22.83;13.27;;;;;;;7.05;100.00;102606.16;5012348;28;20030;-58
2022/10/07 01:19:00;;;;;;;24.27;13.75;;;;;;;6.92;100.00;102580.53;4997879;28;20074;-59
2022/10/07 01:21:42;;;;;;;22.60;13.55;;;;;;;7.03;100.00;102595.41;5012338;28;20030;-61
2022/10/07 01:24:23;;;;;;;23.73;13.27;;;;;;;7.02;100.00;102583.53;5007662;28;20045;-59
2022/10/07 01:27:04;;;;;;;23.55;13.85;;;;;;;7.01;100.00;102592.88;4992990;28;20030;-60
2022/10/07 01:29:37;;;;;;;24.08;13.55;;;;;;;6.92;100.00;102571.47;5006362;28;20176;-60
2022/10/07 01:32:11;;;;;;;24.27;13.55;;;;;;;6.93;100.00;102562.13;5009495;28;20038;-60
2022/10/07 01:34:39;;;;;;;24.08;13.23;;;;;;;6.93;100.00;102565.72;5001005;28;20054;-60
2022/10/07 01:37:10;;;;;;;23.95;13.75;;;;;;;7.02;100.00;102566.22;4994572;28;20062;-60
2022/10/07 01:39:43;;;;;;;23.73;12.63;;;;;;;6.97;100.00;102550.41;5010776;28;20186;-60
2022/10/07 01:42:09;;;;;;;23.60;13.45;;;;;;;7.01;100.00;102548.00;5008375;28;20040;-60
2022/10/07 01:44:35;;;;;;;24.15;13.65;;;;;;;7.02;100.00;102553.28;4996447;28;20044;-60
2022/10/07 01:47:00;;;;;;;22.33;13.15;;;;;;;7.02;100.00;102550.50;4993115;28;20766;-60
2022/10/07 01:49:26;;;;;;;22.35;13.43;;;;;;;7.04;100.00;102544.75;5004896;28;20449;-59
2022/10/07 01:52:16;;;;;;;24.70;13.35;;;;;;;7.02;100.00;102536.75;4992931;28;20613;-60
2022/10/07 01:55:03;;;;;;;24.00;14.00;;;;;;;7.03;100.00;102537.59;5000876;28;20109;-60
2022/10/07 01:57:41;;;;;;;24.25;13.60;;;;;;;7.02;100.00;102525.75;4996852;28;20087;-61
2022/10/07 02:00:08;;;;;;;26.75;13.35;;;;;;;7.00;100.00;102518.81;5003262;28;20034;-60
2022/10/07 02:02:42;;;;;;;22.60;13.23;;;;;;;6.96;100.00;102521.22;5010355;28;20034;-60
2022/10/07 02:05:37;;;;;;;25.17;13.88;;;;;;;6.95;100.00;102524.19;5000938;28;20030;-60
2022/10/07 02:08:24;;;;;;;26.42;13.75;;;;;;;6.79;100.00;102506.53;5008248;28;20497;-60
2022/10/07 02:11:24;;;;;;;25.70;14.60;;;;;;;6.89;100.00;102530.66;5000872;28;20493;-60
2022/10/07 02:14:07;;;;;;;23.45;13.80;;;;;;;6.76;100.00;102505.06;4997240;28;20131;-60
2022/10/07 02:16:42;;;;;;;23.40;13.77;;;;;;;6.82;100.00;102526.13;4997516;28;20081;-60
2022/10/07 02:19:30;;;;;;;24.63;14.55;;;;;;;6.79;100.00;102517.53;4994896;28;20040;-59
2022/10/07 02:21:56;;;;;;;24.48;14.10;;;;;;;6.77;100.00;102516.91;4996817;28;20038;-60
2022/10/07 02:24:26;;;;;;;23.23;13.75;;;;;;;6.65;100.00;102492.16;4997922;28;20177;-60
2022/10/07 02:26:53;;;;;;;22.60;13.52;;;;;;;6.71;100.00;102503.03;5006342;28;20145;-60
2022/10/07 02:29:20;;;;;;;24.25;13.95;;;;;;;6.59;100.00;102490.34;5008096;28;20038;-59
2022/10/07 02:31:47;;;;;;;26.42;14.07;;;;;;;6.59;100.00;102482.97;5005880;28;20102;-59
2022/10/07 02:34:17;;;;;;;26.73;14.13;;;;;;;6.58;100.00;102485.94;5008814;28;20026;-60
2022/10/07 02:36:49;;;;;;;26.55;13.95;;;;;;;6.60;100.00;102481.03;5002723;28;20026;-59
2022/10/07 02:39:14;;;;;;;24.20;14.43;;;;;;;6.64;100.00;102483.06;5009035;28;20030;-60
2022/10/07 02:41:48;;;;;;;26.33;15.77;;;;;;;6.63;100.00;102484.13;5006686;28;20026;-59
2022/10/07 02:44:29;;;;;;;28.58;14.45;;;;;;;6.60;100.00;102479.13;4994372;28;20029;-59
2022/10/07 02:47:02;;;;;;;24.80;14.43;;;;;;;6.52;100.00;102460.22;4991653;28;20042;-61
2022/10/07 02:49:30;;;;;;;27.02;14.88;;;;;;;6.61;100.00;102483.56;4994155;28;20481;-60
2022/10/07 02:52:04;;;;;;;24.50;14.90;;;;;;;6.54;100.00;102463.56;5006709;28;20060;-60
2022/10/07 02:54:34;;;;;;;28.27;14.23;;;;;;;6.60;100.00;102475.53;5013067;28;20037;-59
2022/10/07 02:57:01;;;;;;;26.02;14.95;;;;;;;6.56;100.00;102476.00;5003419;28;20025;-60
2022/10/07 02:59:28;;;;;;;27.42;14.75;;;;;;;6.54;100.00;102460.81;5013397;28;20030;-60
2022/10/07 03:01:57;;;;;;;25.45;14.70;;;;;;;6.46;100.00;102453.78;5002688;28;20030;-59
2022/10/07 03:04:23;;;;;;;24.38;14.43;;;;;;;6.54;100.00;102469.94;5013328;28;20378;-60
2022/10/07 03:06:48;;;;;;;27.02;14.85;;;;;;;6.51;100.00;102459.41;5004409;28;20034;-61
2022/10/07 03:09:14;;;;;;;23.25;14.70;;;;;;;6.47;100.00;102460.13;5014964;28;20057;-59
2022/10/07 03:11:39;;;;;;;25.67;14.98;;;;;;;6.48;100.00;102459.03;5009183;28;20120;-61
2022/10/07 03:14:05;;;;;;;24.85;14.73;;;;;;;6.46;100.00;102455.69;4996156;28;20026;-60
2022/10/07 03:16:31;;;;;;;27.35;14.90;;;;;;;6.44;100.00;102452.34;5003463;28;20041;-60
2022/10/07 03:18:57;;;;;;;26.58;14.57;;;;;;;6.42;100.00;102457.25;5014479;28;20600;-60
2022/10/07 03:21:23;;;;;;;25.30;14.77;;;;;;;6.39;100.00;102451.16;5006038;28;20038;-59
2022/10/07 03:23:51;;;;;;;26.67;14.57;;;;;;;6.40;100.00;102452.84;4994563;28;20026;-59
2022/10/07 03:26:18;;;;;;;24.70;14.50;;;;;;;6.38;100.00;102449.47;4998987;28;20036;-61
2022/10/07 03:28:44;;;;;;;25.65;14.50;;;;;;;6.38;100.00;102441.22;5009784;28;20034;-60
2022/10/07 03:31:12;;;;;;;22.35;13.52;;;;;;;6.37;100.00;102439.56;5005184;28;20071;-59
2022/10/07 03:33:38;;;;;;;25.75;15.13;;;;;;;6.35;100.00;102433.44;5006668;28;20109;-60
2022/10/07 03:36:04;;;;;;;25.75;14.20;;;;;;;6.36;100.00;102437.88;4995952;28;20239;-60
2022/10/07 03:38:30;;;;;;;27.63;14.73;;;;;;;6.35;100.00;102438.13;4999025;28;20048;-60
2022/10/07 03:40:56;;;;;;;26.50;14.30;;;;;;;6.35;100.00;102429.88;4994784;28;20487;-60
2022/10/07 03:43:22;;;;;;;29.08;14.75;;;;;;;6.36;100.00;102432.38;4997138;28;20022;-60
2022/10/07 03:45:50;;;;;;;24.08;13.52;;;;;;;6.33;100.00;102430.09;5011086;28;20063;-60
2022/10/07 03:48:16;;;;;;;24.27;14.43;;;;;;;6.35;100.00;102427.13;5011797;28;20394;-60
2022/10/07 03:50:49;;;;;;;26.77;14.80;;;;;;;6.34;100.00;102428.19;5004893;28;20026;-60
2022/10/07 03:53:15;;;;;;;24.55;14.68;;;;;;;6.33;100.00;102421.84;4996824;28;20033;-61
2022/10/07 03:55:40;;;;;;;25.17;14.02;;;;;;;6.32;100.00;102422.09;5009862;28;20029;-60
2022/10/07 03:58:06;;;;;;;24.75;14.48;;;;;;;6.29;100.00;102423.41;5011623;28;20466;-61
2022/10/07 04:00:31;;;;;;;26.05;15.00;;;;;;;6.29;100.00;102428.06;5005182;28;20053;-60
2022/10/07 04:02:56;;;;;;;29.13;14.57;;;;;;;6.28;100.00;102419.00;4994512;28;20034;-60
2022/10/07 04:05:22;;;;;;;24.77;14.98;;;;;;;6.28;100.00;102420.91;4993638;28;20182;-60
2022/10/07 04:07:49;;;;;;;26.67;15.05;;;;;;;6.29;100.00;102417.06;4994188;28;20414;-60
2022/10/07 04:10:15;;;;;;;29.73;15.32;;;;;;;6.27;100.00;102417.31;4994014;28;20467;-60
2022/10/07 04:12:42;;;;;;;21.35;14.52;;;;;;;6.25;100.00;102416.72;4994089;28;20601;-60
2022/10/07 04:15:12;;;;;;;26.25;15.05;;;;;;;6.24;100.00;102417.78;4993987;28;20489;-61
2022/10/07 04:17:39;;;;;;;24.65;14.57;;;;;;;6.23;100.00;102424.38;4993880;28;20042;-61
2022/10/07 04:20:04;;;;;;;27.00;14.70;;;;;;;6.21;100.00;102415.53;4993861;28;20030;-60
2022/10/07 04:22:30;;;;;;;23.38;14.02;;;;;;;6.18;100.00;102407.75;5008362;28;20076;-60
2022/10/07 04:27:39;;;;;;;25.58;14.13;;;;;;;6.15;100.00;102406.31;5003348;28;20121;-61
2022/10/07 04:30:05;;;;;;;24.48;13.82;;;;;;;6.15;100.00;102408.22;4995214;28;20097;-61
2022/10/07 04:32:30;;;;;;;23.27;14.25;;;;;;;6.13;100.00;102402.97;5010735;28;20121;-61
2022/10/07 04:34:55;;;;;;;25.20;14.45;;;;;;;6.11;100.00;102407.88;5011580;28;20438;-60
2022/10/07 04:37:21;;;;;;;25.73;14.75;;;;;;;6.11;100.00;102398.78;5013728;28;20037;-60
2022/10/07 04:39:46;;;;;;;25.55;16.02;;;;;;;6.12;100.00;102408.72;5013317;28;20036;-60
2022/10/07 04:43:17;;;;;;;25.27;14.20;;;;;;;6.09;100.00;102410.84;5013029;28;20084;-60
2022/10/07 04:44:57;;;;;;;26.25;14.40;;;;;;;6.09;100.00;102410.84;5013066;28;20084;-60
2022/10/07 04:47:22;;;;;;;24.40;13.60;;;;;;;6.10;100.00;102408.94;5012706;28;20026;-61
2022/10/07 04:49:48;;;;;;;26.58;15.00;;;;;;;6.08;100.00;102411.94;5012730;28;20033;-61
2022/10/07 04:52:13;;;;;;;22.85;14.43;;;;;;;6.09;100.00;102410.84;5013274;28;20030;-60
2022/10/07 04:54:39;;;;;;;24.77;14.07;;;;;;;6.07;100.00;102407.50;5012170;28;20469;-60
2022/10/07 04:57:04;;;;;;;25.90;14.82;;;;;;;6.07;100.00;102401.19;5011096;28;20045;-61
2022/10/07 04:59:30;;;;;;;23.77;13.88;;;;;;;6.05;100.00;102398.66;5012444;28;20050;-60
2022/10/07 05:01:56;;;;;;;25.83;13.23;;;;;;;6.03;100.00;102400.81;4997274;28;20061;-60
2022/10/07 05:04:21;;;;;;;24.15;13.75;;;;;;;6.01;100.00;102396.63;5008529;28;20041;-60
2022/10/07 05:06:46;;;;;;;25.73;13.18;;;;;;;5.99;100.00;102396.88;5012591;28;20091;-60
2022/10/07 05:09:12;;;;;;;25.00;13.50;;;;;;;5.98;100.00;102388.84;5012795;28;20041;-60
2022/10/07 05:11:37;;;;;;;21.77;12.93;;;;;;;5.95;100.00;102395.66;5012779;28;20026;-60
2022/10/07 05:14:02;;;;;;;22.75;13.38;;;;;;;5.95;100.00;102392.91;5012637;28;20378;-60
2022/10/07 05:16:27;;;;;;;25.70;13.00;;;;;;;5.92;100.00;102388.69;5012557;28;20034;-60
2022/10/07 05:18:53;;;;;;;24.00;14.07;;;;;;;5.91;100.00;102384.28;5011888;28;20085;-60
2022/10/07 05:21:18;;;;;;;24.38;13.80;;;;;;;5.85;100.00;102384.41;5011934;28;20430;-61
2022/10/07 05:23:43;;;;;;;22.58;13.25;;;;;;;5.88;100.00;102383.91;5012103;28;20028;-60
2022/10/07 05:26:09;;;;;;;24.75;13.07;;;;;;;5.86;100.00;102381.41;5004388;28;20411;-61
2022/10/07 05:28:36;;;;;;;23.75;13.98;;;;;;;5.86;100.00;102372.31;4996014;28;20052;-60
2022/10/07 05:31:04;;;;;;;25.33;13.30;;;;;;;5.84;100.00;102372.56;4998289;28;20041;-59
2022/10/07 05:33:30;;;;;;;23.52;12.98;;;;;;;5.84;100.00;102371.75;4996855;28;20041;-61
2022/10/07 05:35:56;;;;;;;24.17;13.40;;;;;;;5.80;100.00;102365.91;4992419;28;20092;-61
2022/10/07 05:38:22;;;;;;;24.02;13.10;;;;;;;5.81;100.00;102364.78;4992343;28;20030;-59
2022/10/07 05:40:56;;;;;;;24.27;13.07;;;;;;;5.72;100.00;102355.22;4992396;28;20054;-60
2022/10/07 05:43:21;;;;;;;24.50;13.55;;;;;;;5.81;100.00;102369.47;4992491;28;20033;-61
2022/10/07 05:45:47;;;;;;;24.75;13.98;;;;;;;5.80;100.00;102374.13;4992544;28;20027;-60
2022/10/07 05:48:12;;;;;;;25.40;15.75;;;;;;;5.77;100.00;102371.84;4992098;28;20364;-60
2022/10/07 05:50:38;;;;;;;25.90;13.88;;;;;;;5.81;100.00;102378.53;4992384;28;20062;-62
2022/10/07 05:53:04;;;;;;;26.10;13.82;;;;;;;5.79;100.00;102369.72;4992402;28;20057;-60
2022/10/07 05:55:29;;;;;;;26.85;15.35;;;;;;;5.80;100.00;102371.38;4992846;28;20064;-60
2022/10/07 05:57:54;;;;;;;26.88;14.90;;;;;;;5.81;100.00;102363.97;5001018;28;20026;-59
2022/10/07 06:00:20;;;;;;;23.55;13.70;;;;;;;5.81;100.00;102359.28;4993994;28;20026;-59
2022/10/07 06:02:45;;;;;;;24.23;13.52;;;;;;;5.82;100.00;102362.91;5004472;28;20029;-60
2022/10/07 06:05:11;;;;;;;24.40;14.00;;;;;;;5.83;100.00;102351.66;4992030;28;20031;-59
2022/10/07 06:07:36;;;;;;;23.45;13.55;;;;;;;5.82;100.00;102352.72;4992216;28;20058;-59
2022/10/07 06:15:30;;;;;;;22.85;13.60;;;;;;;5.92;100.00;102347.50;4992591;28;20061;-60
2022/10/07 06:17:55;;;;;;;24.17;13.45;;;;;;;5.92;100.00;102346.66;4997922;28;20073;-59
2022/10/07 06:20:20;;;;;;;26.00;12.57;;;;;;;5.98;100.00;102351.19;5011703;28;20396;-61
2022/10/07 06:22:46;;;;;;;24.00;12.45;;;;;;;6.01;100.00;102348.03;5011826;28;20034;-59
2022/10/07 06:25:11;;;;;;;23.80;12.95;;;;;;;6.03;100.00;102350.53;5009956;28;20497;-60
2022/10/07 06:27:36;;;;;;;26.63;12.40;;;;;;;6.07;100.00;102344.31;5002297;28;20065;-58
2022/10/07 06:30:02;;;;;;;28.70;15.90;;;;;;;6.10;100.00;102353.97;4994204;28;20041;-59
2022/10/07 06:32:29;;;;;;;25.05;14.75;;;;;;;6.14;100.00;102349.69;5012185;28;20030;-59
2022/10/07 06:34:54;;;;;;;24.42;12.85;;;;;;;6.17;100.00;102349.22;5014813;28;20030;-59
2022/10/07 06:37:19;;;;;;;28.10;13.52;;;;;;;6.21;100.00;102346.81;5013881;28;20033;-59
2022/10/07 06:39:45;;;;;;;23.05;12.95;;;;;;;6.25;100.00;102348.00;5014609;28;20120;-60
2022/10/07 06:42:10;;;;;;;23.50;12.93;;;;;;;6.30;100.00;102342.63;5014586;28;20052;-59
2022/10/07 06:44:35;;;;;;;22.60;12.82;;;;;;;6.34;100.00;102352.06;5013667;28;20037;-59
2022/10/07 06:47:01;;;;;;;23.67;13.13;;;;;;;6.39;100.00;102352.19;5014785;28;20429;-60
2022/10/07 06:49:26;;;;;;;22.27;12.63;;;;;;;6.44;100.00;102348.72;5015027;28;20065;-59
2022/10/07 06:51:52;;;;;;;23.98;12.32;;;;;;;6.49;100.00;102348.00;5014240;28;20114;-60
2022/10/07 06:54:17;;;;;;;22.23;12.60;;;;;;;6.55;100.00;102353.38;5014370;28;20026;-60
2022/10/07 06:56:43;;;;;;;23.65;12.55;;;;;;;6.61;100.00;102350.72;5008773;28;20038;-60
2022/10/07 06:59:08;;;;;;;24.98;12.93;;;;;;;6.68;100.00;102348.66;5001722;28;20031;-60
2022/10/07 07:01:34;;;;;;;24.15;12.95;;;;;;;6.74;100.00;102349.59;4997838;28;20030;-58
2022/10/07 07:03:59;;;;;;;22.15;12.48;;;;;;;6.82;100.00;102360.22;5003204;28;20026;-60
2022/10/07 07:06:24;;;;;;;24.73;12.38;;;;;;;6.90;100.00;102359.00;4994630;28;20027;-59
2022/10/07 07:08:50;;;;;;;25.00;12.55;;;;;;;6.99;100.00;102352.88;4995439;28;20116;-59
2022/10/07 07:11:36;;;;;;;24.25;12.10;;;;;;;7.06;100.00;102352.72;4994550;28;20518;-59
2022/10/07 07:14:05;;;;;;;24.77;12.55;;;;;;;7.18;100.00;102347.16;4993988;28;20027;-59
2022/10/07 07:16:31;;;;;;;23.48;12.75;;;;;;;7.19;100.00;102337.84;4993775;28;20030;-60
2022/10/07 07:19:00;;;;;;;23.88;12.27;;;;;;;7.27;100.00;102334.72;4993671;28;20446;-60
2022/10/07 07:21:27;;;;;;;25.30;13.02;;;;;;;7.43;100.00;102343.22;4993731;28;20443;-59
2022/10/07 07:23:53;;;;;;;24.77;12.65;;;;;;;7.54;100.00;102347.00;4993619;28;20096;-60
2022/10/07 07:26:19;;;;;;;24.50;12.35;;;;;;;7.60;100.00;102352.34;4994258;28;20030;-58
2022/10/07 07:28:52;;;;;;;24.55;12.60;;;;;;;7.65;100.00;102346.09;5009661;28;20096;-59
2022/10/07 07:31:17;;;;;;;23.30;11.57;;;;;;;7.74;100.00;102350.09;4994207;28;20034;-59
2022/10/07 07:33:43;;;;;;;24.45;12.23;;;;;;;7.83;100.00;102352.44;5001111;28;20518;-60
2022/10/07 07:36:16;;;;;;;23.55;12.30;;;;;;;7.92;100.00;102351.78;5014774;28;20099;-60
2022/10/07 07:38:42;;;;;;;22.40;12.52;;;;;;;7.97;100.00;102348.28;5033128;28;20033;-60
2022/10/07 07:41:08;;;;;;;24.33;13.95;;;;;;;8.09;100.00;102346.25;5030251;28;20487;-60
2022/10/07 07:43:34;;;;;;;29.02;12.63;;;;;;;8.10;100.00;102330.56;5033157;28;20477;-59
2022/10/07 07:46:00;;;;;;;22.58;12.18;;;;;;;8.25;100.00;102333.50;5033195;28;20117;-59
2022/10/07 07:48:26;;;;;;;23.92;12.35;;;;;;;8.35;100.00;102341.13;5033312;28;20026;-59
2022/10/07 07:50:51;;;;;;;21.75;11.65;;;;;;;8.46;100.00;102336.56;4998840;28;20038;-59
2022/10/07 07:53:16;;;;;;;20.42;11.93;;;;;;;8.58;100.00;102339.22;4993292;28;20439;-58
2022/10/07 07:55:55;;;;;;;23.55;12.18;;;;;;;8.61;100.00;102322.16;4992956;28;20034;-59
2022/10/07 07:58:21;;;;;;;22.70;12.15;;;;;;;8.77;100.00;102337.00;4992781;28;20038;-60
2022/10/07 08:01:02;;;;;;;22.13;12.07;;;;;;;8.88;100.00;102335.19;4992577;28;20037;-60
2022/10/07 08:03:28;;;;;;;24.02;12.30;;;;;;;8.97;100.00;102333.63;4992977;28;20034;-59
2022/10/07 08:05:53;;;;;;;23.23;12.07;;;;;;;9.11;100.00;102333.25;4993344;28;20036;-60
2022/10/07 08:08:18;;;;;;;23.42;11.77;;;;;;;9.22;99.45;102332.22;4992607;28;20034;-60
2022/10/07 08:10:43;;;;;;;27.27;11.88;;;;;;;9.35;99.37;102333.75;4992828;28;20030;-60
2022/10/07 08:13:09;;;;;;;26.17;11.85;;;;;;;9.46;98.37;102332.75;4993157;28;20101;-60
2022/10/07 08:15:34;;;;;;;26.42;11.90;;;;;;;9.58;97.98;102331.75;4999286;28;20033;-60
2022/10/07 08:18:01;;;;;;;27.48;12.73;;;;;;;9.68;97.78;102327.13;5012097;28;20102;-60
2022/10/07 08:20:26;;;;;;;22.35;11.93;;;;;;;9.83;97.49;102328.38;5012169;28;20018;-60
2022/10/07 08:22:52;;;;;;;23.92;11.98;;;;;;;9.92;96.42;102318.47;5011847;28;20056;-61
2022/10/07 08:25:17;;;;;;;23.67;11.85;;;;;;;10.05;95.78;102331.00;5010228;28;20040;-60
2022/10/07 08:27:42;;;;;;;22.40;11.07;;;;;;;10.20;96.17;102324.75;5009768;28;20120;-61
2022/10/07 08:30:08;;;;;;;25.05;11.57;;;;;;;10.35;93.76;102324.00;5009829;28;20088;-61
2022/10/07 08:32:34;;;;;;;24.33;11.88;;;;;;;10.52;93.46;102315.56;5009380;28;20049;-61
2022/10/07 08:34:59;;;;;;;21.00;11.50;;;;;;;10.75;92.18;102319.78;5011177;28;20167;-61
2022/10/07 08:37:24;;;;;;;23.08;11.40;;;;;;;11.04;90.49;102318.47;5012215;28;20410;-61
2022/10/07 08:39:49;;;;;;;22.10;11.98;;;;;;;11.20;89.50;102306.31;5011539;28;20042;-59
2022/10/07 08:42:38;;;;;;;22.77;11.02;;;;;;;11.34;87.65;102305.78;5015763;28;20044;-60
2022/10/07 08:45:07;;;;;;;22.15;11.45;;;;;;;11.39;86.92;102308.56;5004187;28;20505;-60
2022/10/07 08:47:38;;;;;;;21.08;11.25;;;;;;;11.43;86.00;102308.84;5002069;28;20033;-60
2022/10/07 08:50:16;;;;;;;22.02;11.95;;;;;;;11.44;85.74;102311.34;5002867;28;20023;-61
2022/10/07 08:52:52;;;;;;;21.75;11.25;;;;;;;11.35;85.95;102294.44;4997105;28;20026;-60
2022/10/07 08:55:21;;;;;;;26.08;11.40;;;;;;;11.38;85.82;102290.28;5002574;28;20025;-61
2022/10/07 08:58:29;;;;;;;21.80;12.02;;;;;;;11.51;86.09;102288.91;5002694;28;20026;-59
2022/10/07 09:01:06;;;;;;;22.38;11.18;;;;;;;11.64;85.58;102293.06;5002016;28;20026;-61
2022/10/07 09:03:39;;;;;;;22.33;11.38;;;;;;;11.74;84.47;102283.88;5001890;28;20046;-62
2022/10/07 09:06:12;;;;;;;23.08;11.40;;;;;;;11.78;84.14;102271.97;5000433;28;20052;-60
2022/10/07 09:08:42;;;;;;;24.67;12.07;;;;;;;11.86;82.49;102267.81;5000144;28;20638;-60
2022/10/07 09:11:15;;;;;;;22.90;10.95;;;;;;;11.95;82.86;102276.38;5001352;28;20447;-62
2022/10/07 09:13:58;;;;;;;23.95;11.65;;;;;;;12.01;83.28;102275.28;5022453;28;20195;-61
2022/10/07 09:16:39;;;;;;;24.13;11.73;;;;;;;12.11;83.52;102269.72;4994402;28;20041;-61
2022/10/07 09:19:05;;;;;;;22.50;12.10;;;;;;;12.25;83.08;102274.66;5000199;28;20034;-60
2022/10/07 09:21:47;;;;;;;25.92;12.00;;;;;;;12.33;81.74;102276.84;5008968;28;20028;-61
2022/10/07 09:24:27;;;;;;;21.60;11.30;;;;;;;12.36;81.76;102264.38;5009472;28;20425;-60
2022/10/07 09:26:57;;;;;;;20.50;10.90;;;;;;;12.29;81.03;102256.34;5010252;28;20054;-61
2022/10/07 09:29:25;;;;;;;24.42;11.55;;;;;;;12.28;80.56;102246.34;5008815;28;20103;-60
2022/10/07 09:31:52;;;;;;;21.90;10.75;;;;;;;12.40;79.63;102263.53;5027072;28;20080;-60
2022/10/07 09:34:27;;;;;;;21.17;10.82;;;;;;;12.41;79.13;102262.41;5029446;28;20414;-62
2022/10/07 09:37:24;;;;;;;22.60;10.77;;;;;;;12.49;80.35;102263.75;5029143;28;20049;-61
2022/10/07 09:40:27;;;;;;;22.55;10.70;;;;;;;12.55;79.40;102257.06;4970347;28;20131;-62
2022/10/07 09:42:57;;;;;;;23.75;11.25;;;;;;;12.57;79.75;102260.38;4956769;28;20039;-60
2022/10/07 09:45:30;;;;;;;23.15;10.93;;;;;;;12.53;79.90;102233.47;5031163;28;20161;-60
2022/10/07 09:48:06;;;;;;;21.92;11.55;;;;;;;12.73;79.52;102247.25;5030825;28;20036;-60
2022/10/07 09:50:42;;;;;;;24.10;11.50;;;;;;;12.86;79.21;102239.41;5030763;28;20033;-60
2022/10/07 09:53:25;;;;;;;19.42;10.93;;;;;;;12.94;78.93;102233.22;5029143;28;20171;-60
2022/10/07 09:55:53;;;;;;;21.97;11.00;;;;;;;12.87;78.80;102230.75;5029224;28;20437;-61
2022/10/07 09:58:33;;;;;;;20.55;10.77;;;;;;;13.04;78.49;102227.59;5030650;28;20060;-61
2022/10/07 10:01:08;;;;;;;22.23;10.90;;;;;;;13.12;77.77;102231.72;5028366;28;20107;-60
2022/10/07 10:03:36;;;;;;;24.42;11.07;;;;;;;13.20;77.28;102221.91;5028429;28;20033;-60
2022/10/07 10:06:05;;;;;;;19.70;11.00;;;;;;;13.33;77.25;102221.25;5028208;28;20132;-60
2022/10/07 10:08:34;;;;;;;23.27;11.10;;;;;;;13.38;76.22;102218.41;5030821;28;20457;-60
2022/10/07 10:11:02;;;;;;;22.25;10.05;;;;;;;13.46;75.47;102211.44;5029606;28;20450;-61
2022/10/07 10:13:35;;;;;;;20.67;10.10;;;;;;;13.61;75.33;102216.03;5029688;28;20192;-60
2022/10/07 10:16:04;;;;;;;19.58;10.30;;;;;;;13.72;74.38;102217.59;5029458;28;20038;-61
2022/10/07 10:18:34;;;;;;;22.67;9.88;;;;;;;13.80;72.28;102207.75;5029142;28;20053;-61
2022/10/07 10:21:25;;;;;;;20.40;10.00;;;;;;;13.79;74.11;102194.97;5028853;28;20033;-61
2022/10/07 10:23:54;;;;;;;18.45;9.95;;;;;;;13.79;70.95;102172.72;5029454;28;20072;-61
2022/10/07 10:26:24;;;;;;;21.95;10.27;;;;;;;14.06;71.72;102196.34;5029094;28;20034;-61
2022/10/07 10:29:09;;;;;;;20.73;9.98;;;;;;;14.12;70.89;102197.13;5014078;28;20033;-61
2022/10/07 10:31:37;;;;;;;19.55;9.68;;;;;;;14.12;69.79;102189.59;5002079;28;20104;-61
2022/10/07 10:34:08;;;;;;;21.98;9.75;;;;;;;14.15;69.63;102185.38;5009768;28;20033;-61
2022/10/07 10:36:41;;;;;;;23.50;10.13;;;;;;;14.19;69.24;102187.25;5009504;28;20030;-61
2022/10/07 10:39:37;;;;;;;24.35;10.10;;;;;;;14.26;70.25;102180.53;5007478;28;20025;-62
2022/10/07 10:42:10;;;;;;;23.25;10.27;;;;;;;14.32;68.47;102169.00;5009250;28;20030;-59
2022/10/07 10:45:02;;;;;;;22.00;9.90;;;;;;;14.43;69.59;102175.28;5009807;28;20030;-60
2022/10/07 10:47:45;;;;;;;22.77;10.02;;;;;;;14.45;68.28;102172.16;5009893;28;20046;-59
2022/10/07 10:50:52;;;;;;;22.67;9.80;;;;;;;14.38;68.76;102149.44;5009807;28;20127;-61
2022/10/07 10:53:39;;;;;;;20.65;9.80;;;;;;;14.54;67.05;102164.81;5009746;28;20239;-62
2022/10/07 10:56:19;;;;;;;22.10;9.70;;;;;;;14.64;67.82;102156.28;5009919;28;20111;-61
2022/10/07 10:59:00;;;;;;;19.52;10.13;;;;;;;14.69;67.06;102147.06;5009943;28;20499;-61
2022/10/07 11:01:36;;;;;;;19.80;10.13;;;;;;;14.71;67.19;102139.25;5009652;28;20084;-60
2022/10/07 11:04:04;;;;;;;21.88;9.93;;;;;;;14.76;67.09;102150.28;5009924;28;20026;-61
2022/10/07 11:06:33;;;;;;;23.33;10.57;;;;;;;14.77;65.28;102149.16;5009574;28;20026;-59
2022/10/07 11:09:00;;;;;;;18.25;9.25;;;;;;;14.77;64.85;102140.81;5009442;28;20079;-61
2022/10/07 11:11:27;;;;;;;18.88;9.50;;;;;;;14.82;64.47;102135.16;5008020;28;20080;-60
2022/10/07 11:14:09;;;;;;;19.88;10.18;;;;;;;14.86;64.99;102127.03;5008166;28;20030;-60
2022/10/07 11:16:41;;;;;;;19.52;10.00;;;;;;;14.88;64.90;102127.53;5012603;28;20026;-61
2022/10/07 11:19:30;;;;;;;20.95;10.13;;;;;;;14.92;66.68;102120.22;5012922;28;20409;-61
2022/10/07 11:21:58;;;;;;;20.65;9.82;;;;;;;15.06;63.83;102116.66;5013048;28;20048;-61
2022/10/07 11:24:43;;;;;;;20.52;9.95;;;;;;;15.17;64.16;102114.50;5013124;28;20401;-61
2022/10/07 11:27:08;;;;;;;20.52;9.85;;;;;;;15.29;63.92;102114.84;5013598;28;20042;-61
2022/10/07 11:29:48;;;;;;;19.67;10.10;;;;;;;15.24;62.79;102096.25;5012688;28;20095;-62
2022/10/07 11:32:20;;;;;;;19.10;9.93;;;;;;;15.38;63.44;102101.84;5013185;28;20034;-60
2022/10/07 11:34:52;;;;;;;21.17;10.18;;;;;;;15.44;61.42;102095.03;5013100;28;20028;-60